sensor_id;sensor_type;location;lat;lon;timestamp;P1;durP1;ratioP1;P2;durP2;ratioP2
40074;SDS011;26529;51.530;11.754;2023-02-01T00:00:05;10.10;;;4.72;;
40074;SDS011;26529;51.530;11.754;2023-02-01T00:02:32;9.45;;;4.70;;
40074;SDS011;26529;51.530;11.754;2023-02-01T00:04:58;9.23;;;4.60;;
40074;SDS011;26529;51.530;11.754;2023-02-01T00:07:23;10.07;;;4.60;;
40074;SDS011;26529;51.530;11.754;2023-02-01T00:09:49;14.48;;;5.05;;
40074;SDS011;26529;51.530;11.754;2023-02-01T00:12:14;13.70;;;4.65;;
40074;SDS011;26529;51.530;11.754;2023-02-01T00:14:39;9.50;;;4.25;;
40074;SDS011;26529;51.530;11.754;2023-02-01T00:17:05;10.02;;;4.00;;
40074;SDS011;26529;51.530;11.754;2023-02-01T00:19:32;8.95;;;4.05;;
40074;SDS011;26529;51.530;11.754;2023-02-01T00:21:57;9.48;;;4.35;;
40074;SDS011;26529;51.530;11.754;2023-02-01T00:24:23;9.07;;;4.30;;
40074;SDS011;26529;51.530;11.754;2023-02-01T00:26:48;10.45;;;3.88;;
40074;SDS011;26529;51.530;11.754;2023-02-01T00:29:17;9.43;;;4.40;;
40074;SDS011;26529;51.530;11.754;2023-02-01T00:31:44;9.32;;;4.75;;
40074;SDS011;26529;51.530;11.754;2023-02-01T00:34:13;11.35;;;4.43;;
40074;SDS011;26529;51.530;11.754;2023-02-01T00:36:40;8.00;;;3.88;;
40074;SDS011;26529;51.530;11.754;2023-02-01T00:39:07;9.95;;;4.53;;
40074;SDS011;26529;51.530;11.754;2023-02-01T00:41:32;8.38;;;4.32;;
40074;SDS011;26529;51.530;11.754;2023-02-01T00:43:58;12.35;;;4.55;;
40074;SDS011;26529;51.530;11.754;2023-02-01T00:46:23;9.00;;;4.10;;
40074;SDS011;26529;51.530;11.754;2023-02-01T00:48:49;7.53;;;3.60;;
40074;SDS011;26529;51.530;11.754;2023-02-01T00:51:18;9.95;;;4.10;;
40074;SDS011;26529;51.530;11.754;2023-02-01T00:53:49;6.60;;;3.83;;
40074;SDS011;26529;51.530;11.754;2023-02-01T00:56:15;9.85;;;4.13;;
40074;SDS011;26529;51.530;11.754;2023-02-01T00:58:41;10.27;;;4.40;;
40074;SDS011;26529;51.530;11.754;2023-02-01T01:03:34;10.70;;;4.30;;
40074;SDS011;26529;51.530;11.754;2023-02-01T01:06:06;8.77;;;4.53;;
40074;SDS011;26529;51.530;11.754;2023-02-01T01:08:34;9.45;;;4.47;;
40074;SDS011;26529;51.530;11.754;2023-02-01T01:11:04;10.02;;;4.00;;
40074;SDS011;26529;51.530;11.754;2023-02-01T01:13:34;7.88;;;4.03;;
40074;SDS011;26529;51.530;11.754;2023-02-01T01:16:01;8.52;;;4.32;;
40074;SDS011;26529;51.530;11.754;2023-02-01T01:18:29;9.18;;;3.78;;
40074;SDS011;26529;51.530;11.754;2023-02-01T01:20:55;13.45;;;4.28;;
40074;SDS011;26529;51.530;11.754;2023-02-01T01:23:21;8.63;;;4.35;;
40074;SDS011;26529;51.530;11.754;2023-02-01T01:25:46;8.35;;;3.88;;
40074;SDS011;26529;51.530;11.754;2023-02-01T01:28:12;7.65;;;4.18;;
40074;SDS011;26529;51.530;11.754;2023-02-01T01:30:37;7.88;;;4.07;;
40074;SDS011;26529;51.530;11.754;2023-02-01T01:33:03;7.82;;;4.40;;
40074;SDS011;26529;51.530;11.754;2023-02-01T01:35:30;8.15;;;4.00;;
40074;SDS011;26529;51.530;11.754;2023-02-01T01:37:57;9.23;;;3.78;;
40074;SDS011;26529;51.530;11.754;2023-02-01T01:40:23;9.10;;;3.85;;
40074;SDS011;26529;51.530;11.754;2023-02-01T01:42:49;6.90;;;3.95;;
40074;SDS011;26529;51.530;11.754;2023-02-01T01:45:24;6.95;;;3.83;;
40074;SDS011;26529;51.530;11.754;2023-02-01T01:47:56;8.45;;;3.95;;
40074;SDS011;26529;51.530;11.754;2023-02-01T01:50:32;7.90;;;3.47;;
40074;SDS011;26529;51.530;11.754;2023-02-01T01:53:03;6.10;;;3.28;;
40074;SDS011;26529;51.530;11.754;2023-02-01T01:55:32;7.22;;;4.22;;
40074;SDS011;26529;51.530;11.754;2023-02-01T01:58:02;7.57;;;3.35;;
40074;SDS011;26529;51.530;11.754;2023-02-01T02:00:31;8.65;;;4.13;;
40074;SDS011;26529;51.530;11.754;2023-02-01T02:03:03;8.70;;;4.07;;
40074;SDS011;26529;51.530;11.754;2023-02-01T02:05:36;5.82;;;3.63;;
40074;SDS011;26529;51.530;11.754;2023-02-01T02:08:03;7.50;;;3.83;;
40074;SDS011;26529;51.530;11.754;2023-02-01T02:10:28;6.57;;;4.10;;
40074;SDS011;26529;51.530;11.754;2023-02-01T02:13:13;7.32;;;3.35;;
40074;SDS011;26529;51.530;11.754;2023-02-01T02:16:00;8.68;;;3.45;;
40074;SDS011;26529;51.530;11.754;2023-02-01T02:18:37;4.88;;;3.15;;
40074;SDS011;26529;51.530;11.754;2023-02-01T02:21:23;7.90;;;3.78;;
40074;SDS011;26529;51.530;11.754;2023-02-01T02:27:00;7.38;;;3.70;;
40074;SDS011;26529;51.530;11.754;2023-02-01T02:32:23;7.88;;;3.92;;
40074;SDS011;26529;51.530;11.754;2023-02-01T02:37:59;7.72;;;3.50;;
40074;SDS011;26529;51.530;11.754;2023-02-01T02:40:42;7.82;;;3.50;;
40074;SDS011;26529;51.530;11.754;2023-02-01T02:46:25;8.65;;;3.72;;
40074;SDS011;26529;51.530;11.754;2023-02-01T02:49:23;6.03;;;3.25;;
40074;SDS011;26529;51.530;11.754;2023-02-01T02:51:59;6.80;;;3.47;;
40074;SDS011;26529;51.530;11.754;2023-02-01T02:54:53;7.35;;;3.30;;
40074;SDS011;26529;51.530;11.754;2023-02-01T02:57:31;5.72;;;3.38;;
40074;SDS011;26529;51.530;11.754;2023-02-01T03:00:19;5.40;;;2.92;;
40074;SDS011;26529;51.530;11.754;2023-02-01T03:03:08;5.63;;;3.20;;
40074;SDS011;26529;51.530;11.754;2023-02-01T03:05:53;5.95;;;3.17;;
40074;SDS011;26529;51.530;11.754;2023-02-01T03:08:23;7.05;;;3.33;;
40074;SDS011;26529;51.530;11.754;2023-02-01T03:24:03;5.25;;;2.97;;
40074;SDS011;26529;51.530;11.754;2023-02-01T03:26:33;4.57;;;2.88;;
40074;SDS011;26529;51.530;11.754;2023-02-01T03:29:07;5.93;;;3.42;;
40074;SDS011;26529;51.530;11.754;2023-02-01T03:31:36;5.88;;;2.95;;
40074;SDS011;26529;51.530;11.754;2023-02-01T03:34:02;8.98;;;3.08;;
40074;SDS011;26529;51.530;11.754;2023-02-01T03:36:30;6.35;;;3.10;;
40074;SDS011;26529;51.530;11.754;2023-02-01T03:39:03;7.28;;;3.22;;
40074;SDS011;26529;51.530;11.754;2023-02-01T03:46:53;4.80;;;2.50;;
40074;SDS011;26529;51.530;11.754;2023-02-01T03:49:25;5.43;;;3.20;;
40074;SDS011;26529;51.530;11.754;2023-02-01T03:51:54;3.95;;;2.30;;
40074;SDS011;26529;51.530;11.754;2023-02-01T03:54:23;5.50;;;3.00;;
40074;SDS011;26529;51.530;11.754;2023-02-01T03:56:51;6.18;;;2.90;;
40074;SDS011;26529;51.530;11.754;2023-02-01T03:59:19;5.88;;;3.28;;
40074;SDS011;26529;51.530;11.754;2023-02-01T04:01:45;5.03;;;2.67;;
40074;SDS011;26529;51.530;11.754;2023-02-01T04:04:11;5.25;;;2.70;;
40074;SDS011;26529;51.530;11.754;2023-02-01T04:06:51;5.28;;;2.60;;
40074;SDS011;26529;51.530;11.754;2023-02-01T04:09:17;8.30;;;3.60;;
40074;SDS011;26529;51.530;11.754;2023-02-01T04:11:43;8.05;;;2.88;;
40074;SDS011;26529;51.530;11.754;2023-02-01T04:14:09;4.20;;;2.40;;
40074;SDS011;26529;51.530;11.754;2023-02-01T04:16:34;4.10;;;2.17;;
40074;SDS011;26529;51.530;11.754;2023-02-01T04:19:00;5.05;;;2.53;;
40074;SDS011;26529;51.530;11.754;2023-02-01T04:21:26;5.25;;;2.45;;
40074;SDS011;26529;51.530;11.754;2023-02-01T04:23:52;5.68;;;2.72;;
40074;SDS011;26529;51.530;11.754;2023-02-01T04:26:18;6.65;;;2.67;;
40074;SDS011;26529;51.530;11.754;2023-02-01T04:28:44;5.47;;;2.85;;
40074;SDS011;26529;51.530;11.754;2023-02-01T04:31:13;3.72;;;2.55;;
40074;SDS011;26529;51.530;11.754;2023-02-01T04:33:39;4.18;;;2.55;;
40074;SDS011;26529;51.530;11.754;2023-02-01T04:36:05;4.30;;;2.50;;
40074;SDS011;26529;51.530;11.754;2023-02-01T04:38:30;5.15;;;2.88;;
40074;SDS011;26529;51.530;11.754;2023-02-01T04:40:57;2.95;;;2.10;;
40074;SDS011;26529;51.530;11.754;2023-02-01T04:43:23;3.42;;;2.28;;
40074;SDS011;26529;51.530;11.754;2023-02-01T04:45:49;5.05;;;2.20;;
40074;SDS011;26529;51.530;11.754;2023-02-01T04:48:16;4.15;;;2.35;;
40074;SDS011;26529;51.530;11.754;2023-02-01T04:50:43;3.95;;;2.28;;
40074;SDS011;26529;51.530;11.754;2023-02-01T04:53:11;4.22;;;2.50;;
40074;SDS011;26529;51.530;11.754;2023-02-01T04:55:36;3.92;;;2.40;;
40074;SDS011;26529;51.530;11.754;2023-02-01T04:58:01;3.60;;;2.40;;
40074;SDS011;26529;51.530;11.754;2023-02-01T05:00:27;4.78;;;2.58;;
40074;SDS011;26529;51.530;11.754;2023-02-01T05:02:52;4.97;;;2.67;;
40074;SDS011;26529;51.530;11.754;2023-02-01T05:05:18;3.40;;;2.28;;
40074;SDS011;26529;51.530;11.754;2023-02-01T05:07:44;4.78;;;2.90;;
40074;SDS011;26529;51.530;11.754;2023-02-01T05:10:11;4.15;;;2.15;;
40074;SDS011;26529;51.530;11.754;2023-02-01T05:12:37;4.82;;;2.30;;
40074;SDS011;26529;51.530;11.754;2023-02-01T05:15:21;3.28;;;2.33;;
40074;SDS011;26529;51.530;11.754;2023-02-01T05:17:46;7.03;;;2.55;;
40074;SDS011;26529;51.530;11.754;2023-02-01T05:20:12;3.45;;;2.40;;
40074;SDS011;26529;51.530;11.754;2023-02-01T05:22:37;4.47;;;2.42;;
40074;SDS011;26529;51.530;11.754;2023-02-01T05:25:03;4.20;;;2.38;;
40074;SDS011;26529;51.530;11.754;2023-02-01T05:27:29;5.05;;;2.22;;
40074;SDS011;26529;51.530;11.754;2023-02-01T05:29:55;2.70;;;2.35;;
40074;SDS011;26529;51.530;11.754;2023-02-01T05:32:21;5.57;;;2.60;;
40074;SDS011;26529;51.530;11.754;2023-02-01T05:34:46;2.40;;;1.75;;
40074;SDS011;26529;51.530;11.754;2023-02-01T05:37:12;3.63;;;2.00;;
40074;SDS011;26529;51.530;11.754;2023-02-01T05:39:37;5.30;;;2.40;;
40074;SDS011;26529;51.530;11.754;2023-02-01T05:42:03;4.20;;;2.03;;
40074;SDS011;26529;51.530;11.754;2023-02-01T05:44:28;3.67;;;2.50;;
40074;SDS011;26529;51.530;11.754;2023-02-01T05:46:54;4.85;;;2.33;;
40074;SDS011;26529;51.530;11.754;2023-02-01T05:49:20;4.03;;;2.30;;
40074;SDS011;26529;51.530;11.754;2023-02-01T05:51:45;4.05;;;2.78;;
40074;SDS011;26529;51.530;11.754;2023-02-01T05:54:11;5.35;;;2.78;;
40074;SDS011;26529;51.530;11.754;2023-02-01T05:56:36;4.75;;;2.85;;
40074;SDS011;26529;51.530;11.754;2023-02-01T05:59:02;4.10;;;2.90;;
40074;SDS011;26529;51.530;11.754;2023-02-01T06:01:27;3.13;;;2.63;;
40074;SDS011;26529;51.530;11.754;2023-02-01T06:03:53;5.35;;;2.97;;
40074;SDS011;26529;51.530;11.754;2023-02-01T06:06:18;3.50;;;3.05;;
40074;SDS011;26529;51.530;11.754;2023-02-01T06:08:44;6.10;;;3.10;;
40074;SDS011;26529;51.530;11.754;2023-02-01T06:11:10;6.00;;;3.75;;
40074;SDS011;26529;51.530;11.754;2023-02-01T06:13:35;4.75;;;2.85;;
40074;SDS011;26529;51.530;11.754;2023-02-01T06:16:03;4.50;;;3.25;;
40074;SDS011;26529;51.530;11.754;2023-02-01T06:18:32;5.55;;;3.47;;
40074;SDS011;26529;51.530;11.754;2023-02-01T06:20:58;3.97;;;3.03;;
40074;SDS011;26529;51.530;11.754;2023-02-01T06:23:25;10.02;;;3.22;;
40074;SDS011;26529;51.530;11.754;2023-02-01T06:25:52;5.70;;;4.47;;
40074;SDS011;26529;51.530;11.754;2023-02-01T06:28:23;5.32;;;4.18;;
40074;SDS011;26529;51.530;11.754;2023-02-01T06:30:49;6.68;;;4.35;;
40074;SDS011;26529;51.530;11.754;2023-02-01T06:33:14;6.28;;;4.13;;
40074;SDS011;26529;51.530;11.754;2023-02-01T06:35:40;8.02;;;5.60;;
40074;SDS011;26529;51.530;11.754;2023-02-01T06:38:12;10.43;;;5.65;;
40074;SDS011;26529;51.530;11.754;2023-02-01T06:40:39;7.88;;;5.38;;
40074;SDS011;26529;51.530;11.754;2023-02-01T06:43:05;9.27;;;6.30;;
40074;SDS011;26529;51.530;11.754;2023-02-01T06:45:30;13.30;;;6.07;;
40074;SDS011;26529;51.530;11.754;2023-02-01T06:47:56;9.45;;;6.78;;
40074;SDS011;26529;51.530;11.754;2023-02-01T06:50:23;9.43;;;6.47;;
40074;SDS011;26529;51.530;11.754;2023-02-01T06:52:49;7.97;;;5.50;;
40074;SDS011;26529;51.530;11.754;2023-02-01T06:55:14;11.00;;;6.45;;
40074;SDS011;26529;51.530;11.754;2023-02-01T06:57:39;9.43;;;5.97;;
40074;SDS011;26529;51.530;11.754;2023-02-01T07:00:05;8.07;;;5.75;;
40074;SDS011;26529;51.530;11.754;2023-02-01T07:02:31;10.20;;;6.90;;
40074;SDS011;26529;51.530;11.754;2023-02-01T07:04:58;8.27;;;5.75;;
40074;SDS011;26529;51.530;11.754;2023-02-01T07:07:23;11.43;;;6.45;;
40074;SDS011;26529;51.530;11.754;2023-02-01T07:09:49;8.65;;;5.75;;
40074;SDS011;26529;51.530;11.754;2023-02-01T07:12:15;11.23;;;6.90;;
40074;SDS011;26529;51.530;11.754;2023-02-01T07:14:40;16.80;;;9.55;;
40074;SDS011;26529;51.530;11.754;2023-02-01T07:17:06;19.05;;;9.68;;
40074;SDS011;26529;51.530;11.754;2023-02-01T07:19:32;23.25;;;11.25;;
40074;SDS011;26529;51.530;11.754;2023-02-01T07:21:57;24.52;;;12.15;;
40074;SDS011;26529;51.530;11.754;2023-02-01T07:24:23;27.05;;;13.25;;
40074;SDS011;26529;51.530;11.754;2023-02-01T07:26:48;23.75;;;12.00;;
40074;SDS011;26529;51.530;11.754;2023-02-01T07:29:16;26.38;;;12.90;;
40074;SDS011;26529;51.530;11.754;2023-02-01T07:31:42;26.67;;;13.10;;
40074;SDS011;26529;51.530;11.754;2023-02-01T07:34:08;29.42;;;14.20;;
40074;SDS011;26529;51.530;11.754;2023-02-01T07:36:33;28.15;;;13.70;;
40074;SDS011;26529;51.530;11.754;2023-02-01T07:39:02;30.17;;;12.77;;
40074;SDS011;26529;51.530;11.754;2023-02-01T07:41:30;27.83;;;13.70;;
40074;SDS011;26529;51.530;11.754;2023-02-01T07:43:56;23.60;;;11.88;;
40074;SDS011;26529;51.530;11.754;2023-02-01T07:46:22;21.73;;;12.25;;
40074;SDS011;26529;51.530;11.754;2023-02-01T07:48:47;18.98;;;11.60;;
40074;SDS011;26529;51.530;11.754;2023-02-01T07:51:14;23.48;;;11.25;;
40074;SDS011;26529;51.530;11.754;2023-02-01T07:53:41;27.30;;;12.02;;
40074;SDS011;26529;51.530;11.754;2023-02-01T07:56:10;25.75;;;12.48;;
40074;SDS011;26529;51.530;11.754;2023-02-01T07:58:37;24.48;;;12.85;;
40074;SDS011;26529;51.530;11.754;2023-02-01T08:01:02;27.98;;;13.13;;
40074;SDS011;26529;51.530;11.754;2023-02-01T08:03:47;24.92;;;13.88;;
40074;SDS011;26529;51.530;11.754;2023-02-01T08:06:13;28.70;;;14.68;;
40074;SDS011;26529;51.530;11.754;2023-02-01T08:08:39;26.58;;;15.07;;
40074;SDS011;26529;51.530;11.754;2023-02-01T08:11:05;29.08;;;13.90;;
40074;SDS011;26529;51.530;11.754;2023-02-01T08:13:33;27.08;;;14.00;;
40074;SDS011;26529;51.530;11.754;2023-02-01T08:16:00;23.02;;;12.23;;
40074;SDS011;26529;51.530;11.754;2023-02-01T08:18:28;27.13;;;13.45;;
40074;SDS011;26529;51.530;11.754;2023-02-01T08:20:53;26.13;;;14.00;;
40074;SDS011;26529;51.530;11.754;2023-02-01T08:23:19;26.92;;;13.82;;
40074;SDS011;26529;51.530;11.754;2023-02-01T08:25:45;23.67;;;13.07;;
40074;SDS011;26529;51.530;11.754;2023-02-01T08:28:11;29.40;;;13.48;;
40074;SDS011;26529;51.530;11.754;2023-02-01T08:30:37;21.75;;;12.00;;
40074;SDS011;26529;51.530;11.754;2023-02-01T08:33:04;23.27;;;11.63;;
40074;SDS011;26529;51.530;11.754;2023-02-01T08:35:35;21.40;;;12.27;;
40074;SDS011;26529;51.530;11.754;2023-02-01T08:38:01;25.38;;;12.68;;
40074;SDS011;26529;51.530;11.754;2023-02-01T08:40:27;22.05;;;11.75;;
40074;SDS011;26529;51.530;11.754;2023-02-01T08:42:53;24.17;;;13.68;;
40074;SDS011;26529;51.530;11.754;2023-02-01T08:45:20;21.60;;;12.52;;
40074;SDS011;26529;51.530;11.754;2023-02-01T08:47:49;28.38;;;12.25;;
40074;SDS011;26529;51.530;11.754;2023-02-01T08:50:16;21.52;;;12.25;;
40074;SDS011;26529;51.530;11.754;2023-02-01T08:52:42;22.30;;;11.95;;
40074;SDS011;26529;51.530;11.754;2023-02-01T08:55:08;22.02;;;11.90;;
40074;SDS011;26529;51.530;11.754;2023-02-01T08:57:34;21.05;;;12.15;;
40074;SDS011;26529;51.530;11.754;2023-02-01T09:00:00;17.85;;;11.50;;
40074;SDS011;26529;51.530;11.754;2023-02-01T09:02:26;18.88;;;11.60;;
40074;SDS011;26529;51.530;11.754;2023-02-01T09:04:52;21.75;;;12.50;;
40074;SDS011;26529;51.530;11.754;2023-02-01T09:07:17;23.38;;;11.27;;
40074;SDS011;26529;51.530;11.754;2023-02-01T09:09:44;19.52;;;11.35;;
40074;SDS011;26529;51.530;11.754;2023-02-01T09:12:09;18.50;;;10.65;;
40074;SDS011;26529;51.530;11.754;2023-02-01T09:14:36;21.02;;;11.55;;
40074;SDS011;26529;51.530;11.754;2023-02-01T09:17:01;19.38;;;10.75;;
40074;SDS011;26529;51.530;11.754;2023-02-01T09:19:27;16.83;;;10.23;;
40074;SDS011;26529;51.530;11.754;2023-02-01T09:21:53;22.02;;;11.38;;
40074;SDS011;26529;51.530;11.754;2023-02-01T09:24:19;16.63;;;10.10;;
40074;SDS011;26529;51.530;11.754;2023-02-01T09:26:44;18.63;;;10.27;;
40074;SDS011;26529;51.530;11.754;2023-02-01T09:29:10;16.45;;;10.02;;
40074;SDS011;26529;51.530;11.754;2023-02-01T09:31:35;16.40;;;10.32;;
40074;SDS011;26529;51.530;11.754;2023-02-01T09:34:02;20.13;;;10.82;;
40074;SDS011;26529;51.530;11.754;2023-02-01T09:36:28;18.27;;;11.07;;
40074;SDS011;26529;51.530;11.754;2023-02-01T09:38:54;20.33;;;10.77;;
40074;SDS011;26529;51.530;11.754;2023-02-01T09:46:59;21.10;;;11.98;;
40074;SDS011;26529;51.530;11.754;2023-02-01T09:49:27;17.20;;;11.25;;
40074;SDS011;26529;51.530;11.754;2023-02-01T09:51:55;18.65;;;10.80;;
40074;SDS011;26529;51.530;11.754;2023-02-01T09:54:26;19.48;;;10.93;;
40074;SDS011;26529;51.530;11.754;2023-02-01T09:57:03;19.10;;;11.45;;
40074;SDS011;26529;51.530;11.754;2023-02-01T09:59:40;19.40;;;10.75;;
40074;SDS011;26529;51.530;11.754;2023-02-01T10:02:12;31.98;;;12.23;;
40074;SDS011;26529;51.530;11.754;2023-02-01T10:04:42;19.30;;;11.05;;
40074;SDS011;26529;51.530;11.754;2023-02-01T10:26:19;30.10;;;16.00;;
40074;SDS011;26529;51.530;11.754;2023-02-01T10:28:58;29.10;;;16.20;;
40074;SDS011;26529;51.530;11.754;2023-02-01T10:31:36;28.95;;;16.02;;
40074;SDS011;26529;51.530;11.754;2023-02-01T10:34:36;30.23;;;16.45;;
40074;SDS011;26529;51.530;11.754;2023-02-01T10:39:47;30.77;;;16.98;;
40074;SDS011;26529;51.530;11.754;2023-02-01T10:42:16;33.15;;;16.58;;
40074;SDS011;26529;51.530;11.754;2023-02-01T10:44:45;27.38;;;14.88;;
40074;SDS011;26529;51.530;11.754;2023-02-01T10:47:13;34.00;;;15.68;;
40074;SDS011;26529;51.530;11.754;2023-02-01T10:49:43;28.88;;;15.93;;
40074;SDS011;26529;51.530;11.754;2023-02-01T10:53:01;27.52;;;15.80;;
40074;SDS011;26529;51.530;11.754;2023-02-01T10:58:28;28.05;;;15.70;;
40074;SDS011;26529;51.530;11.754;2023-02-01T11:00:58;25.23;;;14.48;;
40074;SDS011;26529;51.530;11.754;2023-02-01T11:06:13;25.17;;;14.00;;
40074;SDS011;26529;51.530;11.754;2023-02-01T11:08:43;31.20;;;15.63;;
40074;SDS011;26529;51.530;11.754;2023-02-01T11:11:15;31.95;;;14.40;;
40074;SDS011;26529;51.530;11.754;2023-02-01T11:13:41;30.85;;;13.73;;
40074;SDS011;26529;51.530;11.754;2023-02-01T11:16:10;27.58;;;12.98;;
40074;SDS011;26529;51.530;11.754;2023-02-01T11:18:38;24.45;;;13.25;;
40074;SDS011;26529;51.530;11.754;2023-02-01T11:21:04;26.85;;;13.20;;
40074;SDS011;26529;51.530;11.754;2023-02-01T11:23:31;24.10;;;13.27;;
40074;SDS011;26529;51.530;11.754;2023-02-01T11:26:09;25.33;;;13.10;;
40074;SDS011;26529;51.530;11.754;2023-02-01T11:28:40;28.55;;;14.38;;
40074;SDS011;26529;51.530;11.754;2023-02-01T11:31:15;16.92;;;10.88;;
40074;SDS011;26529;51.530;11.754;2023-02-01T11:33:44;24.23;;;12.90;;
40074;SDS011;26529;51.530;11.754;2023-02-01T11:36:18;24.85;;;11.50;;
40074;SDS011;26529;51.530;11.754;2023-02-01T11:42:02;24.50;;;11.35;;
40074;SDS011;26529;51.530;11.754;2023-02-01T11:44:31;22.17;;;11.10;;
40074;SDS011;26529;51.530;11.754;2023-02-01T11:47:27;26.25;;;12.15;;
40074;SDS011;26529;51.530;11.754;2023-02-01T11:49:56;24.67;;;11.00;;
40074;SDS011;26529;51.530;11.754;2023-02-01T11:55:21;29.75;;;11.70;;
40074;SDS011;26529;51.530;11.754;2023-02-01T12:08:52;23.27;;;10.73;;
40074;SDS011;26529;51.530;11.754;2023-02-01T12:14:30;22.77;;;10.55;;
40074;SDS011;26529;51.530;11.754;2023-02-01T12:20:02;18.52;;;9.45;;
40074;SDS011;26529;51.530;11.754;2023-02-01T12:28:14;19.65;;;8.95;;
40074;SDS011;26529;51.530;11.754;2023-02-01T12:31:06;18.58;;;9.25;;
40074;SDS011;26529;51.530;11.754;2023-02-01T12:36:32;16.48;;;8.90;;
40074;SDS011;26529;51.530;11.754;2023-02-01T12:39:26;15.52;;;9.23;;
40074;SDS011;26529;51.530;11.754;2023-02-01T12:41:58;19.48;;;9.30;;
40074;SDS011;26529;51.530;11.754;2023-02-01T12:47:19;17.15;;;8.77;;
40074;SDS011;26529;51.530;11.754;2023-02-01T12:49:54;18.20;;;9.13;;
40074;SDS011;26529;51.530;11.754;2023-02-01T12:57:41;15.00;;;8.23;;
40074;SDS011;26529;51.530;11.754;2023-02-01T13:03:07;15.77;;;8.57;;
40074;SDS011;26529;51.530;11.754;2023-02-01T13:06:37;20.90;;;8.68;;
40074;SDS011;26529;51.530;11.754;2023-02-01T13:08:38;16.15;;;7.95;;
40074;SDS011;26529;51.530;11.754;2023-02-01T13:11:18;17.77;;;7.93;;
40074;SDS011;26529;51.530;11.754;2023-02-01T13:16:49;12.23;;;7.18;;
40074;SDS011;26529;51.530;11.754;2023-02-01T13:22:15;12.57;;;6.72;;
40074;SDS011;26529;51.530;11.754;2023-02-01T13:24:54;16.20;;;7.63;;
40074;SDS011;26529;51.530;11.754;2023-02-01T13:29:54;13.57;;;7.68;;
40074;SDS011;26529;51.530;11.754;2023-02-01T13:32:25;14.13;;;8.52;;
40074;SDS011;26529;51.530;11.754;2023-02-01T13:35:29;14.57;;;6.97;;
40074;SDS011;26529;51.530;11.754;2023-02-01T13:38:26;12.45;;;7.55;;
40074;SDS011;26529;51.530;11.754;2023-02-01T13:44:03;14.30;;;7.30;;
40074;SDS011;26529;51.530;11.754;2023-02-01T13:46:40;12.10;;;7.10;;
40074;SDS011;26529;51.530;11.754;2023-02-01T13:49:13;13.23;;;7.05;;
40074;SDS011;26529;51.530;11.754;2023-02-01T13:51:45;18.73;;;7.88;;
40074;SDS011;26529;51.530;11.754;2023-02-01T13:56:56;14.65;;;7.55;;
40074;SDS011;26529;51.530;11.754;2023-02-01T14:05:01;13.48;;;6.82;;
40074;SDS011;26529;51.530;11.754;2023-02-01T14:07:26;10.40;;;6.75;;
40074;SDS011;26529;51.530;11.754;2023-02-01T14:09:53;14.50;;;7.03;;
40074;SDS011;26529;51.530;11.754;2023-02-01T14:17:48;12.35;;;6.95;;
40074;SDS011;26529;51.530;11.754;2023-02-01T14:23:09;8.75;;;6.25;;
40074;SDS011;26529;51.530;11.754;2023-02-01T14:25:38;13.40;;;6.47;;
40074;SDS011;26529;51.530;11.754;2023-02-01T14:28:10;11.55;;;6.30;;
40074;SDS011;26529;51.530;11.754;2023-02-01T14:30:48;11.45;;;5.93;;
40074;SDS011;26529;51.530;11.754;2023-02-01T14:33:24;11.35;;;5.93;;
40074;SDS011;26529;51.530;11.754;2023-02-01T14:38:35;12.73;;;6.43;;
40074;SDS011;26529;51.530;11.754;2023-02-01T14:49:29;10.50;;;6.22;;
40074;SDS011;26529;51.530;11.754;2023-02-01T14:51:57;9.32;;;6.30;;
40074;SDS011;26529;51.530;11.754;2023-02-01T14:54:23;10.40;;;6.20;;
40074;SDS011;26529;51.530;11.754;2023-02-01T14:56:50;13.43;;;5.32;;
40074;SDS011;26529;51.530;11.754;2023-02-01T14:59:17;10.82;;;5.57;;
40074;SDS011;26529;51.530;11.754;2023-02-01T15:01:53;11.77;;;5.10;;
40074;SDS011;26529;51.530;11.754;2023-02-01T15:04:24;12.60;;;5.65;;
40074;SDS011;26529;51.530;11.754;2023-02-01T15:06:55;19.45;;;4.95;;
40074;SDS011;26529;51.530;11.754;2023-02-01T15:12:04;19.77;;;5.20;;
40074;SDS011;26529;51.530;11.754;2023-02-01T15:14:36;15.23;;;5.68;;
40074;SDS011;26529;51.530;11.754;2023-02-01T15:17:16;15.65;;;5.15;;
40074;SDS011;26529;51.530;11.754;2023-02-01T15:19:52;10.88;;;4.80;;
40074;SDS011;26529;51.530;11.754;2023-02-01T15:22:29;19.38;;;5.35;;
40074;SDS011;26529;51.530;11.754;2023-02-01T15:24:59;12.90;;;4.63;;
40074;SDS011;26529;51.530;11.754;2023-02-01T15:27:26;18.10;;;4.72;;
40074;SDS011;26529;51.530;11.754;2023-02-01T15:29:53;11.18;;;5.10;;
40074;SDS011;26529;51.530;11.754;2023-02-01T15:32:28;10.93;;;5.07;;
40074;SDS011;26529;51.530;11.754;2023-02-01T15:34:58;10.75;;;5.20;;
40074;SDS011;26529;51.530;11.754;2023-02-01T15:37:25;14.20;;;5.28;;
40074;SDS011;26529;51.530;11.754;2023-02-01T15:42:41;7.68;;;4.22;;
40074;SDS011;26529;51.530;11.754;2023-02-01T15:45:20;10.50;;;3.97;;
40074;SDS011;26529;51.530;11.754;2023-02-01T15:47:47;10.48;;;4.70;;
40074;SDS011;26529;51.530;11.754;2023-02-01T15:50:18;11.15;;;4.20;;
40074;SDS011;26529;51.530;11.754;2023-02-01T15:52:46;8.15;;;4.65;;
40074;SDS011;26529;51.530;11.754;2023-02-01T15:58:08;10.00;;;4.55;;
40074;SDS011;26529;51.530;11.754;2023-02-01T16:00:42;8.75;;;4.15;;
40074;SDS011;26529;51.530;11.754;2023-02-01T16:03:28;9.68;;;3.97;;
40074;SDS011;26529;51.530;11.754;2023-02-01T16:06:03;11.82;;;4.00;;
40074;SDS011;26529;51.530;11.754;2023-02-01T16:08:31;10.77;;;3.90;;
40074;SDS011;26529;51.530;11.754;2023-02-01T16:13:34;14.60;;;4.20;;
40074;SDS011;26529;51.530;11.754;2023-02-01T16:16:01;9.45;;;4.50;;
40074;SDS011;26529;51.530;11.754;2023-02-01T16:18:26;7.45;;;3.47;;
40074;SDS011;26529;51.530;11.754;2023-02-01T16:20:52;8.98;;;4.18;;
40074;SDS011;26529;51.530;11.754;2023-02-01T16:23:17;9.32;;;3.55;;
40074;SDS011;26529;51.530;11.754;2023-02-01T16:25:45;11.70;;;4.18;;
40074;SDS011;26529;51.530;11.754;2023-02-01T16:28:11;12.77;;;3.63;;
40074;SDS011;26529;51.530;11.754;2023-02-01T16:30:37;7.75;;;3.80;;
40074;SDS011;26529;51.530;11.754;2023-02-01T16:33:03;14.73;;;4.47;;
40074;SDS011;26529;51.530;11.754;2023-02-01T16:35:31;13.57;;;3.95;;
40074;SDS011;26529;51.530;11.754;2023-02-01T16:38:10;11.60;;;3.90;;
40074;SDS011;26529;51.530;11.754;2023-02-01T16:40:38;13.48;;;3.95;;
40074;SDS011;26529;51.530;11.754;2023-02-01T16:43:10;13.73;;;3.60;;
40074;SDS011;26529;51.530;11.754;2023-02-01T16:45:38;8.93;;;3.60;;
40074;SDS011;26529;51.530;11.754;2023-02-01T16:48:05;7.35;;;3.80;;
40074;SDS011;26529;51.530;11.754;2023-02-01T16:50:31;9.55;;;3.67;;
40074;SDS011;26529;51.530;11.754;2023-02-01T16:52:58;8.57;;;3.33;;
40074;SDS011;26529;51.530;11.754;2023-02-01T16:55:23;12.57;;;3.83;;
40074;SDS011;26529;51.530;11.754;2023-02-01T16:57:50;8.93;;;3.83;;
40074;SDS011;26529;51.530;11.754;2023-02-01T17:00:16;7.95;;;3.40;;
40074;SDS011;26529;51.530;11.754;2023-02-01T17:02:42;9.20;;;3.45;;
40074;SDS011;26529;51.530;11.754;2023-02-01T17:05:09;7.50;;;3.50;;
40074;SDS011;26529;51.530;11.754;2023-02-01T17:07:35;10.45;;;4.05;;
40074;SDS011;26529;51.530;11.754;2023-02-01T17:10:03;9.63;;;3.78;;
40074;SDS011;26529;51.530;11.754;2023-02-01T17:12:31;10.88;;;3.88;;
40074;SDS011;26529;51.530;11.754;2023-02-01T17:14:58;6.60;;;3.35;;